sensor_id;sensor_type;location;lat;lon;timestamp;temperature;humidity
38604;DHT22;24924;50.054;8.790;2024-02-04T00:01:41;9.90;99.90
38604;DHT22;24924;50.054;8.790;2024-02-04T00:04:06;9.80;99.90
38604;DHT22;24924;50.054;8.790;2024-02-04T00:06:32;9.80;99.90
38604;DHT22;24924;50.054;8.790;2024-02-04T00:08:58;9.80;99.90
38604;DHT22;24924;50.054;8.790;2024-02-04T00:11:24;9.80;99.90
38604;DHT22;24924;50.054;8.790;2024-02-04T00:13:50;9.80;99.90
38604;DHT22;24924;50.054;8.790;2024-02-04T00:16:15;9.80;99.90
38604;DHT22;24924;50.054;8.790;2024-02-04T00:18:41;9.80;99.90
38604;DHT22;24924;50.054;8.790;2024-02-04T00:21:07;9.80;99.90
38604;DHT22;24924;50.054;8.790;2024-02-04T00:23:33;9.80;99.90
38604;DHT22;24924;50.054;8.790;2024-02-04T00:25:59;9.70;99.90
38604;DHT22;24924;50.054;8.790;2024-02-04T00:28:25;9.80;99.90
38604;DHT22;24924;50.054;8.790;2024-02-04T00:30:53;9.80;99.90
38604;DHT22;24924;50.054;8.790;2024-02-04T00:33:21;9.80;99.90
38604;DHT22;24924;50.054;8.790;2024-02-04T00:35:48;9.80;99.90
38604;DHT22;24924;50.054;8.790;2024-02-04T00:38:13;9.70;99.90
38604;DHT22;24924;50.054;8.790;2024-02-04T00:40:39;9.80;99.90
38604;DHT22;24924;50.054;8.790;2024-02-04T00:43:05;9.70;99.90
38604;DHT22;24924;50.054;8.790;2024-02-04T00:45:31;9.70;99.90
38604;DHT22;24924;50.054;8.790;2024-02-04T00:47:57;9.80;99.90
38604;DHT22;24924;50.054;8.790;2024-02-04T00:50:23;9.70;99.90
38604;DHT22;24924;50.054;8.790;2024-02-04T00:52:49;9.80;99.90
38604;DHT22;24924;50.054;8.790;2024-02-04T00:55:15;9.70;99.90
38604;DHT22;24924;50.054;8.790;2024-02-04T00:57:41;9.70;99.90
38604;DHT22;24924;50.054;8.790;2024-02-04T01:00:07;9.70;99.90
38604;DHT22;24924;50.054;8.790;2024-02-04T01:02:33;9.70;99.90
38604;DHT22;24924;50.054;8.790;2024-02-04T01:04:59;9.70;99.90
38604;DHT22;24924;50.054;8.790;2024-02-04T01:07:25;9.70;99.90
38604;DHT22;24924;50.054;8.790;2024-02-04T01:09:51;9.70;99.90
38604;DHT22;24924;50.054;8.790;2024-02-04T01:12:17;9.70;99.90
38604;DHT22;24924;50.054;8.790;2024-02-04T01:14:43;9.70;99.90
38604;DHT22;24924;50.054;8.790;2024-02-04T01:17:09;9.70;99.90
38604;DHT22;24924;50.054;8.790;2024-02-04T01:19:34;9.70;99.90
38604;DHT22;24924;50.054;8.790;2024-02-04T01:22:00;9.70;99.90
38604;DHT22;24924;50.054;8.790;2024-02-04T01:24:26;9.70;99.90
38604;DHT22;24924;50.054;8.790;2024-02-04T01:26:52;9.70;99.90
38604;DHT22;24924;50.054;8.790;2024-02-04T01:29:18;9.70;99.90
38604;DHT22;24924;50.054;8.790;2024-02-04T01:31:43;9.70;99.90
38604;DHT22;24924;50.054;8.790;2024-02-04T01:34:09;9.70;99.90
38604;DHT22;24924;50.054;8.790;2024-02-04T01:36:35;9.70;99.90
38604;DHT22;24924;50.054;8.790;2024-02-04T01:39:02;9.70;99.90
38604;DHT22;24924;50.054;8.790;2024-02-04T01:41:28;9.60;99.90
38604;DHT22;24924;50.054;8.790;2024-02-04T01:43:54;9.60;99.90
38604;DHT22;24924;50.054;8.790;2024-02-04T01:46:20;9.60;99.90
38604;DHT22;24924;50.054;8.790;2024-02-04T01:48:46;9.60;99.90
38604;DHT22;24924;50.054;8.790;2024-02-04T01:51:14;9.60;99.90
38604;DHT22;24924;50.054;8.790;2024-02-04T01:53:42;9.50;99.90
38604;DHT22;24924;50.054;8.790;2024-02-04T01:56:10;9.50;99.90
38604;DHT22;24924;50.054;8.790;2024-02-04T01:58:37;9.50;99.90
38604;DHT22;24924;50.054;8.790;2024-02-04T02:01:02;9.50;99.90
38604;DHT22;24924;50.054;8.790;2024-02-04T02:03:31;9.50;99.90
38604;DHT22;24924;50.054;8.790;2024-02-04T02:05:57;9.50;99.90
38604;DHT22;24924;50.054;8.790;2024-02-04T02:08:23;9.40;99.90
38604;DHT22;24924;50.054;8.790;2024-02-04T02:10:51;9.40;99.90
38604;DHT22;24924;50.054;8.790;2024-02-04T02:13:29;9.50;99.90
38604;DHT22;24924;50.054;8.790;2024-02-04T02:16:04;9.40;99.90
38604;DHT22;24924;50.054;8.790;2024-02-04T02:18:52;9.40;99.90
38604;DHT22;24924;50.054;8.790;2024-02-04T02:24:05;9.40;99.90
38604;DHT22;24924;50.054;8.790;2024-02-04T02:26:33;9.40;99.90
38604;DHT22;24924;50.054;8.790;2024-02-04T02:29:04;9.30;99.90
38604;DHT22;24924;50.054;8.790;2024-02-04T02:31:31;9.30;99.90
38604;DHT22;24924;50.054;8.790;2024-02-04T02:33:57;9.20;99.90
38604;DHT22;24924;50.054;8.790;2024-02-04T02:36:25;9.20;99.90
38604;DHT22;24924;50.054;8.790;2024-02-04T02:39:17;9.20;99.90
38604;DHT22;24924;50.054;8.790;2024-02-04T02:41:44;9.20;99.90
38604;DHT22;24924;50.054;8.790;2024-02-04T02:44:12;9.10;99.90
38604;DHT22;24924;50.054;8.790;2024-02-04T02:46:39;9.10;99.90
38604;DHT22;24924;50.054;8.790;2024-02-04T02:49:05;9.10;99.90
38604;DHT22;24924;50.054;8.790;2024-02-04T02:51:31;9.10;99.90
38604;DHT22;24924;50.054;8.790;2024-02-04T02:53:57;9.00;99.90
38604;DHT22;24924;50.054;8.790;2024-02-04T02:56:23;9.10;99.90
38604;DHT22;24924;50.054;8.790;2024-02-04T02:58:49;9.00;99.90
38604;DHT22;24924;50.054;8.790;2024-02-04T03:01:15;9.00;99.90
38604;DHT22;24924;50.054;8.790;2024-02-04T03:03:41;9.00;99.90
38604;DHT22;24924;50.054;8.790;2024-02-04T03:06:07;8.90;99.90
38604;DHT22;24924;50.054;8.790;2024-02-04T03:08:34;8.90;99.90
38604;DHT22;24924;50.054;8.790;2024-02-04T03:10:59;8.90;99.90
38604;DHT22;24924;50.054;8.790;2024-02-04T03:13:25;8.90;99.90
38604;DHT22;24924;50.054;8.790;2024-02-04T03:15:51;8.90;99.90
38604;DHT22;24924;50.054;8.790;2024-02-04T03:18:17;8.90;99.90
38604;DHT22;24924;50.054;8.790;2024-02-04T03:20:43;8.90;99.90
38604;DHT22;24924;50.054;8.790;2024-02-04T03:23:09;8.90;99.90
38604;DHT22;24924;50.054;8.790;2024-02-04T03:25:34;8.90;99.90
38604;DHT22;24924;50.054;8.790;2024-02-04T03:28:00;8.90;99.90
38604;DHT22;24924;50.054;8.790;2024-02-04T03:30:26;9.00;99.90
38604;DHT22;24924;50.054;8.790;2024-02-04T03:32:52;8.90;99.90
38604;DHT22;24924;50.054;8.790;2024-02-04T03:35:18;8.90;99.90
38604;DHT22;24924;50.054;8.790;2024-02-04T03:37:43;8.90;99.90
38604;DHT22;24924;50.054;8.790;2024-02-04T03:40:10;8.90;99.90
38604;DHT22;24924;50.054;8.790;2024-02-04T03:42:36;9.00;99.90
38604;DHT22;24924;50.054;8.790;2024-02-04T03:45:02;8.90;99.90
38604;DHT22;24924;50.054;8.790;2024-02-04T03:47:29;8.90;99.90
38604;DHT22;24924;50.054;8.790;2024-02-04T03:49:55;9.00;99.90
38604;DHT22;24924;50.054;8.790;2024-02-04T03:52:21;9.00;99.90
38604;DHT22;24924;50.054;8.790;2024-02-04T03:54:47;9.00;99.90
38604;DHT22;24924;50.054;8.790;2024-02-04T03:57:12;9.00;99.90
38604;DHT22;24924;50.054;8.790;2024-02-04T03:59:38;8.60;99.90
38604;DHT22;24924;50.054;8.790;2024-02-04T04:02:04;8.90;99.90
38604;DHT22;24924;50.054;8.790;2024-02-04T04:04:30;8.90;99.90
38604;DHT22;24924;50.054;8.790;2024-02-04T04:06:56;8.90;99.90
38604;DHT22;24924;50.054;8.790;2024-02-04T04:09:22;8.90;99.90
38604;DHT22;24924;50.054;8.790;2024-02-04T04:11:47;8.90;99.90
38604;DHT22;24924;50.054;8.790;2024-02-04T04:14:13;8.90;99.90
38604;DHT22;24924;50.054;8.790;2024-02-04T04:16:39;8.90;99.90
38604;DHT22;24924;50.054;8.790;2024-02-04T04:19:05;8.90;99.90
38604;DHT22;24924;50.054;8.790;2024-02-04T04:21:31;8.90;99.90
38604;DHT22;24924;50.054;8.790;2024-02-04T04:23:57;8.90;99.90
38604;DHT22;24924;50.054;8.790;2024-02-04T04:26:22;9.00;99.90
38604;DHT22;24924;50.054;8.790;2024-02-04T04:28:48;9.00;99.90
38604;DHT22;24924;50.054;8.790;2024-02-04T04:31:15;8.90;99.90
38604;DHT22;24924;50.054;8.790;2024-02-04T04:33:40;8.90;99.90
38604;DHT22;24924;50.054;8.790;2024-02-04T04:36:06;8.90;99.90
38604;DHT22;24924;50.054;8.790;2024-02-04T04:38:32;9.00;99.90
38604;DHT22;24924;50.054;8.790;2024-02-04T04:40:58;9.00;99.90
38604;DHT22;24924;50.054;8.790;2024-02-04T04:43:24;9.00;99.90
38604;DHT22;24924;50.054;8.790;2024-02-04T04:45:52;9.00;99.90
38604;DHT22;24924;50.054;8.790;2024-02-04T04:48:18;9.00;99.90
38604;DHT22;24924;50.054;8.790;2024-02-04T04:50:44;9.00;99.90
38604;DHT22;24924;50.054;8.790;2024-02-04T04:53:09;9.00;99.90
38604;DHT22;24924;50.054;8.790;2024-02-04T04:55:35;9.00;99.90
38604;DHT22;24924;50.054;8.790;2024-02-04T04:58:01;9.10;99.90
38604;DHT22;24924;50.054;8.790;2024-02-04T05:00:26;9.10;99.90
38604;DHT22;24924;50.054;8.790;2024-02-04T05:02:52;9.10;99.90
38604;DHT22;24924;50.054;8.790;2024-02-04T05:05:18;9.10;99.90
38604;DHT22;24924;50.054;8.790;2024-02-04T05:07:44;9.10;99.90
38604;DHT22;24924;50.054;8.790;2024-02-04T05:10:12;9.10;99.90
38604;DHT22;24924;50.054;8.790;2024-02-04T05:12:38;9.10;99.90
38604;DHT22;24924;50.054;8.790;2024-02-04T05:15:05;9.20;99.90
38604;DHT22;24924;50.054;8.790;2024-02-04T05:17:31;9.10;99.90
38604;DHT22;24924;50.054;8.790;2024-02-04T05:19:58;9.20;99.90
38604;DHT22;24924;50.054;8.790;2024-02-04T05:22:24;9.20;99.90
38604;DHT22;24924;50.054;8.790;2024-02-04T05:24:50;9.20;99.90
38604;DHT22;24924;50.054;8.790;2024-02-04T05:27:16;9.20;99.90
38604;DHT22;24924;50.054;8.790;2024-02-04T05:29:42;9.20;99.90
38604;DHT22;24924;50.054;8.790;2024-02-04T05:32:08;9.20;99.90
38604;DHT22;24924;50.054;8.790;2024-02-04T05:34:33;9.20;99.90
38604;DHT22;24924;50.054;8.790;2024-02-04T05:37:00;9.20;99.90
38604;DHT22;24924;50.054;8.790;2024-02-04T05:39:25;9.20;99.90
38604;DHT22;24924;50.054;8.790;2024-02-04T05:41:51;9.20;99.90
38604;DHT22;24924;50.054;8.790;2024-02-04T05:44:17;9.20;99.90
38604;DHT22;24924;50.054;8.790;2024-02-04T05:46:42;9.10;99.90
38604;DHT22;24924;50.054;8.790;2024-02-04T05:49:08;9.20;99.90
38604;DHT22;24924;50.054;8.790;2024-02-04T05:51:41;9.10;99.90
38604;DHT22;24924;50.054;8.790;2024-02-04T05:54:07;9.10;99.90
38604;DHT22;24924;50.054;8.790;2024-02-04T05:56:33;9.10;99.90
38604;DHT22;24924;50.054;8.790;2024-02-04T05:58:59;9.10;99.90
38604;DHT22;24924;50.054;8.790;2024-02-04T06:01:25;9.10;99.90
38604;DHT22;24924;50.054;8.790;2024-02-04T06:03:51;9.10;99.90
38604;DHT22;24924;50.054;8.790;2024-02-04T06:06:18;9.10;99.90
38604;DHT22;24924;50.054;8.790;2024-02-04T06:08:46;9.10;99.90
38604;DHT22;24924;50.054;8.790;2024-02-04T06:11:13;9.10;99.90
38604;DHT22;24924;50.054;8.790;2024-02-04T06:13:40;9.10;99.90
38604;DHT22;24924;50.054;8.790;2024-02-04T06:16:07;9.10;99.90
38604;DHT22;24924;50.054;8.790;2024-02-04T06:18:34;9.10;99.90
38604;DHT22;24924;50.054;8.790;2024-02-04T06:21:00;9.20;99.90
38604;DHT22;24924;50.054;8.790;2024-02-04T06:23:26;9.20;99.90
38604;DHT22;24924;50.054;8.790;2024-02-04T06:25:51;9.20;99.90
38604;DHT22;24924;50.054;8.790;2024-02-04T06:28:17;9.30;99.90
38604;DHT22;24924;50.054;8.790;2024-02-04T06:30:43;9.30;99.90
38604;DHT22;24924;50.054;8.790;2024-02-04T06:33:09;9.30;99.90
38604;DHT22;24924;50.054;8.790;2024-02-04T06:35:34;9.30;99.90
38604;DHT22;24924;50.054;8.790;2024-02-04T06:38:00;9.30;99.90
38604;DHT22;24924;50.054;8.790;2024-02-04T06:40:26;9.30;99.90
38604;DHT22;24924;50.054;8.790;2024-02-04T06:42:52;9.30;99.90
38604;DHT22;24924;50.054;8.790;2024-02-04T06:45:18;9.30;99.90
38604;DHT22;24924;50.054;8.790;2024-02-04T06:47:44;9.30;99.90
38604;DHT22;24924;50.054;8.790;2024-02-04T06:50:11;9.30;99.90
38604;DHT22;24924;50.054;8.790;2024-02-04T06:52:43;9.40;99.90
38604;DHT22;24924;50.054;8.790;2024-02-04T06:55:09;9.40;99.90
38604;DHT22;24924;50.054;8.790;2024-02-04T06:57:35;9.40;99.90
38604;DHT22;24924;50.054;8.790;2024-02-04T07:00:02;9.40;99.90
38604;DHT22;24924;50.054;8.790;2024-02-04T07:02:31;9.40;99.90
38604;DHT22;24924;50.054;8.790;2024-02-04T07:04:57;9.40;99.90
38604;DHT22;24924;50.054;8.790;2024-02-04T07:07:23;9.40;99.90
38604;DHT22;24924;50.054;8.790;2024-02-04T07:09:49;9.40;99.90
38604;DHT22;24924;50.054;8.790;2024-02-04T07:12:15;9.40;99.90
38604;DHT22;24924;50.054;8.790;2024-02-04T07:14:40;9.50;99.90
38604;DHT22;24924;50.054;8.790;2024-02-04T07:17:06;9.50;99.90
38604;DHT22;24924;50.054;8.790;2024-02-04T07:19:32;9.50;99.90
38604;DHT22;24924;50.054;8.790;2024-02-04T07:21:58;9.50;99.90
38604;DHT22;24924;50.054;8.790;2024-02-04T07:24:24;9.50;99.90
38604;DHT22;24924;50.054;8.790;2024-02-04T07:26:50;9.50;99.90
38604;DHT22;24924;50.054;8.790;2024-02-04T07:29:16;9.50;99.90
38604;DHT22;24924;50.054;8.790;2024-02-04T07:31:42;9.50;99.90
38604;DHT22;24924;50.054;8.790;2024-02-04T07:34:08;9.50;99.90
38604;DHT22;24924;50.054;8.790;2024-02-04T07:36:34;9.50;99.90
38604;DHT22;24924;50.054;8.790;2024-02-04T07:38:59;9.50;99.90
38604;DHT22;24924;50.054;8.790;2024-02-04T07:41:26;9.50;99.90
38604;DHT22;24924;50.054;8.790;2024-02-04T07:43:53;9.50;99.90
38604;DHT22;24924;50.054;8.790;2024-02-04T07:46:18;9.50;99.90
38604;DHT22;24924;50.054;8.790;2024-02-04T07:48:44;9.50;99.90
38604;DHT22;24924;50.054;8.790;2024-02-04T07:51:10;9.50;99.90
38604;DHT22;24924;50.054;8.790;2024-02-04T07:53:36;9.50;99.90
38604;DHT22;24924;50.054;8.790;2024-02-04T07:56:02;9.50;99.90
38604;DHT22;24924;50.054;8.790;2024-02-04T07:58:29;9.50;99.90
38604;DHT22;24924;50.054;8.790;2024-02-04T08:00:55;9.50;99.90
38604;DHT22;24924;50.054;8.790;2024-02-04T08:03:21;9.50;99.90
38604;DHT22;24924;50.054;8.790;2024-02-04T08:05:47;9.50;99.90
38604;DHT22;24924;50.054;8.790;2024-02-04T08:08:12;9.50;99.90
38604;DHT22;24924;50.054;8.790;2024-02-04T08:10:38;9.50;99.90
38604;DHT22;24924;50.054;8.790;2024-02-04T08:13:04;9.50;99.90
38604;DHT22;24924;50.054;8.790;2024-02-04T08:15:30;9.40;99.90
38604;DHT22;24924;50.054;8.790;2024-02-04T08:17:56;9.40;99.90
38604;DHT22;24924;50.054;8.790;2024-02-04T08:20:21;9.50;99.90
38604;DHT22;24924;50.054;8.790;2024-02-04T08:22:48;9.40;99.90
38604;DHT22;24924;50.054;8.790;2024-02-04T08:25:14;9.50;99.90
38604;DHT22;24924;50.054;8.790;2024-02-04T08:27:40;9.50;99.90
38604;DHT22;24924;50.054;8.790;2024-02-04T08:30:06;9.50;99.90
38604;DHT22;24924;50.054;8.790;2024-02-04T08:32:32;9.50;99.90
38604;DHT22;24924;50.054;8.790;2024-02-04T08:34:58;9.50;99.90
38604;DHT22;24924;50.054;8.790;2024-02-04T08:37:23;9.50;99.90
38604;DHT22;24924;50.054;8.790;2024-02-04T08:39:49;9.50;99.90
38604;DHT22;24924;50.054;8.790;2024-02-04T08:42:15;9.50;99.90
38604;DHT22;24924;50.054;8.790;2024-02-04T08:44:41;9.40;99.90
38604;DHT22;24924;50.054;8.790;2024-02-04T08:47:07;9.60;99.90
38604;DHT22;24924;50.054;8.790;2024-02-04T08:49:38;9.70;99.90
38604;DHT22;24924;50.054;8.790;2024-02-04T08:52:05;9.60;99.90
38604;DHT22;24924;50.054;8.790;2024-02-04T08:54:31;9.60;99.90
38604;DHT22;24924;50.054;8.790;2024-02-04T08:57:02;9.80;99.90
38604;DHT22;24924;50.054;8.790;2024-02-04T08:59:35;9.80;99.90
38604;DHT22;24924;50.054;8.790;2024-02-04T09:02:01;9.60;99.90
38604;DHT22;24924;50.054;8.790;2024-02-04T09:04:27;9.50;99.90
38604;DHT22;24924;50.054;8.790;2024-02-04T09:06:52;9.60;99.90
38604;DHT22;24924;50.054;8.790;2024-02-04T09:09:18;9.60;99.90
38604;DHT22;24924;50.054;8.790;2024-02-04T09:11:44;9.70;99.90
38604;DHT22;24924;50.054;8.790;2024-02-04T09:14:09;9.80;99.90
38604;DHT22;24924;50.054;8.790;2024-02-04T09:16:38;9.90;99.90
38604;DHT22;24924;50.054;8.790;2024-02-04T09:19:05;9.90;99.90
38604;DHT22;24924;50.054;8.790;2024-02-04T09:21:30;9.90;99.90
38604;DHT22;24924;50.054;8.790;2024-02-04T09:23:56;10.00;99.90
38604;DHT22;24924;50.054;8.790;2024-02-04T09:26:23;10.00;99.90
38604;DHT22;24924;50.054;8.790;2024-02-04T09:28:48;9.90;99.90
38604;DHT22;24924;50.054;8.790;2024-02-04T09:31:14;9.90;99.90
38604;DHT22;24924;50.054;8.790;2024-02-04T09:33:58;9.90;99.90
38604;DHT22;24924;50.054;8.790;2024-02-04T09:36:24;9.80;99.90
38604;DHT22;24924;50.054;8.790;2024-02-04T09:38:50;9.80;99.90
38604;DHT22;24924;50.054;8.790;2024-02-04T09:41:17;9.80;99.90
38604;DHT22;24924;50.054;8.790;2024-02-04T09:43:43;9.90;99.90
38604;DHT22;24924;50.054;8.790;2024-02-04T09:46:10;10.10;99.90
38604;DHT22;24924;50.054;8.790;2024-02-04T09:48:36;10.10;99.90
38604;DHT22;24924;50.054;8.790;2024-02-04T09:51:04;10.00;99.90
38604;DHT22;24924;50.054;8.790;2024-02-04T09:53:34;10.00;99.90
38604;DHT22;24924;50.054;8.790;2024-02-04T09:56:04;10.10;99.90
38604;DHT22;24924;50.054;8.790;2024-02-04T09:58:32;10.10;99.90
38604;DHT22;24924;50.054;8.790;2024-02-04T10:01:00;10.10;99.90
38604;DHT22;24924;50.054;8.790;2024-02-04T10:03:26;10.20;99.90
38604;DHT22;24924;50.054;8.790;2024-02-04T10:05:52;10.20;99.90
38604;DHT22;24924;50.054;8.790;2024-02-04T10:08:18;10.30;99.90
38604;DHT22;24924;50.054;8.790;2024-02-04T10:10:45;10.30;99.90
38604;DHT22;24924;50.054;8.790;2024-02-04T10:13:11;10.30;99.90
38604;DHT22;24924;50.054;8.790;2024-02-04T10:15:36;10.40;99.90
38604;DHT22;24924;50.054;8.790;2024-02-04T10:18:03;10.50;99.90
38604;DHT22;24924;50.054;8.790;2024-02-04T10:20:30;10.60;99.90
38604;DHT22;24924;50.054;8.790;2024-02-04T10:22:56;10.70;99.90
38604;DHT22;24924;50.054;8.790;2024-02-04T10:25:22;10.70;99.90
38604;DHT22;24924;50.054;8.790;2024-02-04T10:27:48;10.90;99.90
38604;DHT22;24924;50.054;8.790;2024-02-04T10:30:14;11.10;99.90
38604;DHT22;24924;50.054;8.790;2024-02-04T10:32:41;11.20;99.90
38604;DHT22;24924;50.054;8.790;2024-02-04T10:35:11;11.20;99.90
38604;DHT22;24924;50.054;8.790;2024-02-04T10:37:37;11.20;99.90
38604;DHT22;24924;50.054;8.790;2024-02-04T10:40:03;11.20;99.90
38604;DHT22;24924;50.054;8.790;2024-02-04T10:42:30;11.20;99.90
38604;DHT22;24924;50.054;8.790;2024-02-04T10:44:58;11.10;99.90
38604;DHT22;24924;50.054;8.790;2024-02-04T10:47:29;11.10;99.90
38604;DHT22;24924;50.054;8.790;2024-02-04T10:49:58;11.30;99.90
38604;DHT22;24924;50.054;8.790;2024-02-04T10:52:27;11.30;99.90
38604;DHT22;24924;50.054;8.790;2024-02-04T10:54:53;11.40;99.90
38604;DHT22;24924;50.054;8.790;2024-02-04T10:57:22;11.50;99.90
38604;DHT22;24924;50.054;8.790;2024-02-04T10:59:49;11.50;99.90
38604;DHT22;24924;50.054;8.790;2024-02-04T11:02:15;11.30;99.90
38604;DHT22;24924;50.054;8.790;2024-02-04T11:04:43;11.10;99.90
38604;DHT22;24924;50.054;8.790;2024-02-04T11:07:10;11.00;99.90
38604;DHT22;24924;50.054;8.790;2024-02-04T11:09:39;11.00;99.90
38604;DHT22;24924;50.054;8.790;2024-02-04T11:12:10;10.90;99.90
38604;DHT22;24924;50.054;8.790;2024-02-04T11:14:39;10.80;99.90
38604;DHT22;24924;50.054;8.790;2024-02-04T11:23:14;10.80;99.90
38604;DHT22;24924;50.054;8.790;2024-02-04T11:25:52;10.90;99.90
38604;DHT22;24924;50.054;8.790;2024-02-04T11:28:21;11.10;99.90
38604;DHT22;24924;50.054;8.790;2024-02-04T11:30:47;11.20;99.90
38604;DHT22;24924;50.054;8.790;2024-02-04T11:33:20;11.20;99.90
38604;DHT22;24924;50.054;8.790;2024-02-04T11:35:46;11.20;99.90
38604;DHT22;24924;50.054;8.790;2024-02-04T11:38:11;11.10;99.90
38604;DHT22;24924;50.054;8.790;2024-02-04T11:40:39;11.00;99.90
38604;DHT22;24924;50.054;8.790;2024-02-04T11:43:06;11.00;99.90
38604;DHT22;24924;50.054;8.790;2024-02-04T11:45:32;11.10;99.90
38604;DHT22;24924;50.054;8.790;2024-02-04T11:48:01;11.00;99.90
38604;DHT22;24924;50.054;8.790;2024-02-04T11:50:28;10.90;99.90
38604;DHT22;24924;50.054;8.790;2024-02-04T11:53:14;10.90;99.90
38604;DHT22;24924;50.054;8.790;2024-02-04T11:55:40;10.90;99.90
38604;DHT22;24924;50.054;8.790;2024-02-04T11:58:07;10.80;99.90
38604;DHT22;24924;50.054;8.790;2024-02-04T12:00:35;10.80;99.90
38604;DHT22;24924;50.054;8.790;2024-02-04T12:03:05;10.90;99.90
38604;DHT22;24924;50.054;8.790;2024-02-04T12:05:32;11.00;99.90
38604;DHT22;24924;50.054;8.790;2024-02-04T12:08:03;11.00;99.90
38604;DHT22;24924;50.054;8.790;2024-02-04T12:10:34;10.90;99.90
38604;DHT22;24924;50.054;8.790;2024-02-04T12:13:02;10.90;99.90
38604;DHT22;24924;50.054;8.790;2024-02-04T12:15:29;10.90;99.90
38604;DHT22;24924;50.054;8.790;2024-02-04T12:18:04;11.00;99.90
38604;DHT22;24924;50.054;8.790;2024-02-04T12:20:30;11.00;99.90
38604;DHT22;24924;50.054;8.790;2024-02-04T12:22:56;11.00;99.90
38604;DHT22;24924;50.054;8.790;2024-02-04T12:25:22;11.00;99.90
38604;DHT22;24924;50.054;8.790;2024-02-04T12:27:51;11.00;99.90
38604;DHT22;24924;50.054;8.790;2024-02-04T12:30:17;11.10;99.90
38604;DHT22;24924;50.054;8.790;2024-02-04T12:32:43;11.10;99.90
38604;DHT22;24924;50.054;8.790;2024-02-04T12:35:13;11.10;99.90
38604;DHT22;24924;50.054;8.790;2024-02-04T12:37:50;11.00;99.90
38604;DHT22;24924;50.054;8.790;2024-02-04T12:40:23;11.00;99.90
38604;DHT22;24924;50.054;8.790;2024-02-04T12:43:00;10.90;99.90
38604;DHT22;24924;50.054;8.790;2024-02-04T12:45:27;10.90;99.90
38604;DHT22;24924;50.054;8.790;2024-02-04T12:47:55;10.90;99.90
38604;DHT22;24924;50.054;8.790;2024-02-04T12:50:21;10.90;99.90
38604;DHT22;24924;50.054;8.790;2024-02-04T12:52:49;10.90;99.90
38604;DHT22;24924;50.054;8.790;2024-02-04T12:55:39;10.90;99.90
38604;DHT22;24924;50.054;8.790;2024-02-04T13:00:36;10.90;99.90
38604;DHT22;24924;50.054;8.790;2024-02-04T13:03:03;10.90;99.90
38604;DHT22;24924;50.054;8.790;2024-02-04T13:05:28;10.90;99.90
38604;DHT22;24924;50.054;8.790;2024-02-04T13:08:00;10.90;99.90
38604;DHT22;24924;50.054;8.790;2024-02-04T13:10:32;10.90;99.90
38604;DHT22;24924;50.054;8.790;2024-02-04T13:13:00;11.00;99.90
38604;DHT22;24924;50.054;8.790;2024-02-04T13:15:30;11.00;99.90
38604;DHT22;24924;50.054;8.790;2024-02-04T13:17:56;11.00;99.90
38604;DHT22;24924;50.054;8.790;2024-02-04T13:20:22;11.00;99.90
38604;DHT22;24924;50.054;8.790;2024-02-04T13:22:49;10.90;99.90
38604;DHT22;24924;50.054;8.790;2024-02-04T13:25:15;10.90;99.90
38604;DHT22;24924;50.054;8.790;2024-02-04T13:27:41;10.90;99.90
38604;DHT22;24924;50.054;8.790;2024-02-04T13:30:07;10.90;99.90
38604;DHT22;24924;50.054;8.790;2024-02-04T13:32:39;10.90;99.90
38604;DHT22;24924;50.054;8.790;2024-02-04T13:35:06;10.90;99.90
38604;DHT22;24924;50.054;8.790;2024-02-04T13:37:33;10.90;99.90
38604;DHT22;24924;50.054;8.790;2024-02-04T13:39:58;11.00;99.90
38604;DHT22;24924;50.054;8.790;2024-02-04T13:42:24;10.90;99.90
38604;DHT22;24924;50.054;8.790;2024-02-04T13:44:50;11.00;99.90
38604;DHT22;24924;50.054;8.790;2024-02-04T13:47:16;11.00;99.90
38604;DHT22;24924;50.054;8.790;2024-02-04T13:49:42;11.10;99.90
38604;DHT22;24924;50.054;8.790;2024-02-04T13:52:08;11.00;99.90
38604;DHT22;24924;50.054;8.790;2024-02-04T13:54:33;11.00;99.90
38604;DHT22;24924;50.054;8.790;2024-02-04T13:56:59;11.00;99.90
38604;DHT22;24924;50.054;8.790;2024-02-04T13:59:25;10.90;99.90
38604;DHT22;24924;50.054;8.790;2024-02-04T14:01:51;11.00;99.90
38604;DHT22;24924;50.054;8.790;2024-02-04T14:04:18;10.90;99.90
38604;DHT22;24924;50.054;8.790;2024-02-04T14:06:43;10.90;99.90
38604;DHT22;24924;50.054;8.790;2024-02-04T14:09:10;10.90;99.90
38604;DHT22;24924;50.054;8.790;2024-02-04T14:11:38;10.90;99.90
38604;DHT22;24924;50.054;8.790;2024-02-04T14:14:04;10.90;99.90
38604;DHT22;24924;50.054;8.790;2024-02-04T14:16:30;10.90;99.90
38604;DHT22;24924;50.054;8.790;2024-02-04T14:18:56;10.90;99.90
38604;DHT22;24924;50.054;8.790;2024-02-04T14:21:21;10.90;99.90
38604;DHT22;24924;50.054;8.790;2024-02-04T14:23:48;10.90;99.90
38604;DHT22;24924;50.054;8.790;2024-02-04T14:26:18;10.90;99.90
38604;DHT22;24924;50.054;8.790;2024-02-04T14:28:44;10.90;99.90
38604;DHT22;24924;50.054;8.790;2024-02-04T14:31:09;11.00;99.90
38604;DHT22;24924;50.054;8.790;2024-02-04T14:33:35;11.00;99.90
38604;DHT22;24924;50.054;8.790;2024-02-04T14:36:01;11.00;99.90
38604;DHT22;24924;50.054;8.790;2024-02-04T14:38:27;11.00;99.90
38604;DHT22;24924;50.054;8.790;2024-02-04T14:40:53;11.00;99.90
38604;DHT22;24924;50.054;8.790;2024-02-04T14:43:18;11.10;99.90
38604;DHT22;24924;50.054;8.790;2024-02-04T14:45:47;11.10;99.90
38604;DHT22;24924;50.054;8.790;2024-02-04T14:48:13;11.10;99.90
38604;DHT22;24924;50.054;8.790;2024-02-04T14:50:38;11.10;99.90
38604;DHT22;24924;50.054;8.790;2024-02-04T14:53:05;11.00;99.90
38604;DHT22;24924;50.054;8.790;2024-02-04T14:55:32;11.00;99.90
38604;DHT22;24924;50.054;8.790;2024-02-04T14:57:58;11.00;99.90
38604;DHT22;24924;50.054;8.790;2024-02-04T15:00:23;11.00;99.90
38604;DHT22;24924;50.054;8.790;2024-02-04T15:02:51;11.00;99.90
38604;DHT22;24924;50.054;8.790;2024-02-04T15:05:17;11.00;99.90
38604;DHT22;24924;50.054;8.790;2024-02-04T15:07:43;11.00;99.90
38604;DHT22;24924;50.054;8.790;2024-02-04T15:10:09;11.00;99.90
38604;DHT22;24924;50.054;8.790;2024-02-04T15:12:38;10.90;99.90
38604;DHT22;24924;50.054;8.790;2024-02-04T15:15:05;10.90;99.90
38604;DHT22;24924;50.054;8.790;2024-02-04T15:17:33;11.00;99.90
38604;DHT22;24924;50.054;8.790;2024-02-04T15:19:59;10.90;99.90
38604;DHT22;24924;50.054;8.790;2024-02-04T15:22:25;10.90;99.90
38604;DHT22;24924;50.054;8.790;2024-02-04T15:24:51;10.90;99.90
38604;DHT22;24924;50.054;8.790;2024-02-04T15:27:18;11.00;99.90
38604;DHT22;24924;50.054;8.790;2024-02-04T15:29:47;11.00;99.90
38604;DHT22;24924;50.054;8.790;2024-02-04T15:32:14;11.00;99.90
38604;DHT22;24924;50.054;8.790;2024-02-04T15:34:42;11.00;99.90
38604;DHT22;24924;50.054;8.790;2024-02-04T15:37:08;11.00;99.90
38604;DHT22;24924;50.054;8.790;2024-02-04T15:39:36;11.00;99.90
38604;DHT22;24924;50.054;8.790;2024-02-04T15:42:05;11.00;99.90
38604;DHT22;24924;50.054;8.790;2024-02-04T15:44:31;10.90;99.90
38604;DHT22;24924;50.054;8.790;2024-02-04T15:47:05;10.90;99.90
38604;DHT22;24924;50.054;8.790;2024-02-04T15:49:31;10.90;99.90